Terminal Aerodrome Forecast
Issued by NWS

Home | Current Version | Previous Version | Text Only | Print | Product List | Glossary On
Versions: 1 2 3 4 5 6 7 8 9 10 11 12 13 14
249
FTUS45 KRIW 271732
TAFCOD
TAF
KCOD 271732Z 2718/2818 26010G16KT P6SM SCT060
     FM271830 02007KT P6SM SCT060
     FM272000 12008KT P6SM VCTS SCT050CB BKN070
     FM280300 VRB06KT P6SM VCSH SCT070 BKN100
     FM280700 21007KT P6SM SCT100
     FM281300 02009KT P6SM SCT100
      AMD LTD TO CLD VIS AND WIND=

USA.gov is the U.S. government's official web portal to all federal, state and local government web resources and services.